createdAt,value
2022-10-06T00:02:09.260Z,79.82
2022-10-06T00:04:53.506Z,80.38
2022-10-06T00:07:37.475Z,80.16
2022-10-06T00:10:21.855Z,80.49
2022-10-06T00:13:04.873Z,79.33
2022-10-06T00:15:47.934Z,79.80
2022-10-06T00:18:31.383Z,79.24
2022-10-06T00:21:15.487Z,78.40
2022-10-06T00:23:58.655Z,78.80
2022-10-06T00:26:43.074Z,79.44
2022-10-06T00:29:26.150Z,79.40
2022-10-06T00:32:09.533Z,79.61
2022-10-06T00:34:52.816Z,79.63
2022-10-06T00:37:38.259Z,79.86
2022-10-06T00:40:22.059Z,79.75
2022-10-06T00:43:07.737Z,79.72
2022-10-06T00:45:51.003Z,79.65
2022-10-06T00:48:34.203Z,80.31
2022-10-06T00:51:17.512Z,80.70
2022-10-06T00:54:01.805Z,80.84
2022-10-06T00:56:45.115Z,81.07
2022-10-06T00:59:30.036Z,80.09
2022-10-06T01:02:19.374Z,81.26
2022-10-06T01:05:04.865Z,80.72
2022-10-06T01:07:47.960Z,81.49
2022-10-06T01:10:30.958Z,82.38
2022-10-06T01:13:15.501Z,81.94
2022-10-06T01:16:09.269Z,82.13
2022-10-06T01:18:55.771Z,81.84
2022-10-06T01:21:45.459Z,82.28
2022-10-06T01:24:29.892Z,82.33
2022-10-06T01:27:14.467Z,82.85
2022-10-06T01:29:58.775Z,82.34
2022-10-06T01:32:42.143Z,83.27
2022-10-06T01:35:25.560Z,82.59
2022-10-06T01:38:08.604Z,83.11
2022-10-06T01:40:54.620Z,82.61
2022-10-06T01:43:37.628Z,82.58
2022-10-06T01:46:21.335Z,82.85
2022-10-06T01:49:04.406Z,83.32
2022-10-06T01:51:47.822Z,82.71
2022-10-06T01:54:30.898Z,83.57
2022-10-06T01:57:15.275Z,82.57
2022-10-06T01:59:58.235Z,82.55
2022-10-06T02:02:41.567Z,82.46
2022-10-06T02:05:24.586Z,83.07
2022-10-06T02:08:09.665Z,83.56
2022-10-06T02:10:52.676Z,83.93
2022-10-06T02:13:37.692Z,83.68
2022-10-06T02:16:21.225Z,83.82
2022-10-06T02:19:04.418Z,83.57
2022-10-06T02:21:47.435Z,82.83
2022-10-06T02:24:30.437Z,82.90
2022-10-06T02:27:13.439Z,82.66
2022-10-06T02:29:58.157Z,82.17
2022-10-06T02:32:42.816Z,82.80
2022-10-06T02:35:26.055Z,83.18
2022-10-06T02:38:09.039Z,82.82
2022-10-06T02:40:52.069Z,83.49
2022-10-06T02:43:35.239Z,83.81
2022-10-06T02:46:19.651Z,84.00
2022-10-06T02:49:02.689Z,84.18
2022-10-06T02:51:45.718Z,84.07
2022-10-06T02:54:28.706Z,85.57
2022-10-06T02:57:11.801Z,85.48
2022-10-06T02:59:55.085Z,85.40
2022-10-06T03:02:39.646Z,86.30
2022-10-06T03:05:22.701Z,85.97
2022-10-06T03:08:05.754Z,85.80
2022-10-06T03:10:48.750Z,85.12
2022-10-06T03:13:31.954Z,85.17
2022-10-06T03:16:19.685Z,84.92
2022-10-06T03:19:04.727Z,85.32
2022-10-06T03:21:47.745Z,85.66
2022-10-06T03:24:30.786Z,84.81
2022-10-06T03:27:13.790Z,85.43
2022-10-06T03:29:56.755Z,84.87
2022-10-06T03:32:39.728Z,85.57
2022-10-06T03:35:25.349Z,86.42
2022-10-06T03:38:08.333Z,87.02
2022-10-06T03:40:51.369Z,86.82
2022-10-06T03:43:34.516Z,86.93
2022-10-06T03:46:19.923Z,86.58
2022-10-06T03:49:03.071Z,86.48
2022-10-06T03:51:47.498Z,86.68
2022-10-06T03:54:30.551Z,86.36
2022-10-06T03:57:13.591Z,87.00
2022-10-06T03:59:59.821Z,87.89
2022-10-06T04:02:42.811Z,87.68
2022-10-06T04:05:25.819Z,87.09
2022-10-06T04:08:10.203Z,87.12
2022-10-06T04:10:53.220Z,86.98
2022-10-06T04:13:36.952Z,87.25
2022-10-06T04:16:21.922Z,87.47
2022-10-06T04:19:07.573Z,87.37
2022-10-06T04:21:50.559Z,87.31
2022-10-06T04:24:34.967Z,86.73
2022-10-06T04:27:30.121Z,86.72
2022-10-06T04:30:14.453Z,86.54
2022-10-06T04:32:57.495Z,87.68
2022-10-06T04:35:40.442Z,88.79
2022-10-06T04:38:23.445Z,88.91
2022-10-06T04:41:09.351Z,87.89
2022-10-06T04:43:52.979Z,87.42
2022-10-06T04:46:44.986Z,87.35
2022-10-06T04:49:28.237Z,88.05
2022-10-06T04:52:11.639Z,88.17
2022-10-06T04:54:54.648Z,86.13
2022-10-06T04:57:39.108Z,85.53
2022-10-06T05:00:25.456Z,84.16
2022-10-06T05:03:08.509Z,84.03
2022-10-06T05:05:51.538Z,83.43
2022-10-06T05:08:34.676Z,83.36
2022-10-06T05:11:20.295Z,82.45
2022-10-06T05:14:06.920Z,81.72
2022-10-06T05:16:50.095Z,81.49
2022-10-06T05:19:33.243Z,81.30
2022-10-06T05:22:16.386Z,80.29
2022-10-06T05:24:59.408Z,79.79
2022-10-06T05:27:42.538Z,77.90
2022-10-06T05:30:27.154Z,76.39
2022-10-06T05:33:12.265Z,75.36
2022-10-06T05:35:56.564Z,74.11
2022-10-06T05:38:39.926Z,73.49
2022-10-06T05:41:24.949Z,73.12
2022-10-06T05:44:08.811Z,73.00
2022-10-06T05:46:53.161Z,72.35
2022-10-06T05:49:36.234Z,72.52
2022-10-06T05:52:19.256Z,72.08
2022-10-06T05:55:02.248Z,71.02
2022-10-06T05:57:45.222Z,70.19
2022-10-06T06:00:28.286Z,69.14
2022-10-06T06:03:13.288Z,68.52
2022-10-06T06:05:56.267Z,67.95
2022-10-06T06:08:39.300Z,68.20
2022-10-06T06:11:25.455Z,66.41
2022-10-06T06:14:10.074Z,64.73
2022-10-06T06:16:52.157Z,66.90
2022-10-06T06:19:36.635Z,67.06
2022-10-06T06:22:19.673Z,63.24
2022-10-06T06:25:02.697Z,57.27
2022-10-06T06:27:46.155Z,50.24
2022-10-06T06:30:29.202Z,42.37
2022-10-06T06:33:12.395Z,38.11
2022-10-06T06:35:57.479Z,35.46
2022-10-06T06:38:40.677Z,34.52
2022-10-06T06:41:25.317Z,32.80
2022-10-06T06:44:11.181Z,31.63
2022-10-06T06:46:54.313Z,27.44
2022-10-06T06:49:37.327Z,26.89
2022-10-06T06:52:21.933Z,27.49
2022-10-06T06:55:05.469Z,27.00
2022-10-06T06:57:49.650Z,27.31
2022-10-06T07:00:36.019Z,27.33
2022-10-06T07:03:32.943Z,27.86
2022-10-06T07:06:28.180Z,27.18
2022-10-06T07:09:14.250Z,24.89
2022-10-06T07:11:57.537Z,23.13
2022-10-06T07:15:01.305Z,22.74
2022-10-06T07:18:01.681Z,19.87
2022-10-06T07:21:01.964Z,20.67
2022-10-06T07:24:03.039Z,20.51
2022-10-06T07:26:48.811Z,19.18
2022-10-06T07:29:31.779Z,22.41
2022-10-06T07:32:21.363Z,21.97
2022-10-06T07:35:04.802Z,22.64
2022-10-06T07:37:48.520Z,21.13
2022-10-06T07:40:31.519Z,18.60
2022-10-06T07:43:15.901Z,21.45
2022-10-06T07:45:59.023Z,19.09
2022-10-06T07:48:42.535Z,20.47
2022-10-06T07:51:27.338Z,17.47
2022-10-06T07:54:10.401Z,14.45
2022-10-06T07:56:54.141Z,14.24
2022-10-06T07:59:38.552Z,16.95
2022-10-06T08:02:24.442Z,14.94
2022-10-06T08:05:08.442Z,15.36
2022-10-06T08:07:53.160Z,14.27
2022-10-06T08:10:36.208Z,17.10
2022-10-06T08:13:19.184Z,18.43
2022-10-06T08:16:07.252Z,18.83
2022-10-06T08:18:53.335Z,16.65
2022-10-06T08:21:36.507Z,16.04
2022-10-06T08:24:19.775Z,17.84
2022-10-06T08:27:02.746Z,18.49
2022-10-06T08:29:45.794Z,15.39
2022-10-06T08:32:30.360Z,13.59
2022-10-06T08:35:14.270Z,11.76
2022-10-06T08:37:57.408Z,13.11
2022-10-06T08:40:43.970Z,12.90
2022-10-06T08:43:28.460Z,14.75
2022-10-06T08:46:14.604Z,15.33
2022-10-06T08:49:02.487Z,15.64
2022-10-06T08:51:53.920Z,17.52
2022-10-06T08:54:42.916Z,15.68
2022-10-06T08:57:32.619Z,16.46
2022-10-06T09:00:21.320Z,17.98
2022-10-06T09:03:05.884Z,17.30
2022-10-06T09:05:51.822Z,14.57
2022-10-06T09:08:48.871Z,12.10
2022-10-06T09:11:47.884Z,11.96
2022-10-06T09:14:37.637Z,11.70
2022-10-06T09:17:27.716Z,11.64
2022-10-06T09:20:20.599Z,12.17
2022-10-06T09:23:07.132Z,13.99
2022-10-06T09:25:50.298Z,14.83
2022-10-06T09:28:34.386Z,14.64
2022-10-06T09:31:23.173Z,14.56
2022-10-06T09:34:16.771Z,13.06
2022-10-06T09:37:03.140Z,15.22
2022-10-06T09:39:49.587Z,14.08
2022-10-06T09:42:35.785Z,15.14
2022-10-06T09:45:52.094Z,16.78
2022-10-06T09:48:35.128Z,15.22
2022-10-06T09:51:19.370Z,16.18
2022-10-06T09:54:14.211Z,16.89
2022-10-06T09:57:00.179Z,16.04
2022-10-06T09:59:45.378Z,16.74
2022-10-06T10:02:37.237Z,15.96
2022-10-06T10:05:22.541Z,15.73
2022-10-06T10:08:09.212Z,14.72
2022-10-06T10:11:32.805Z,13.59
2022-10-06T10:14:20.599Z,12.06
2022-10-06T10:17:10.940Z,14.12
2022-10-06T10:19:56.204Z,12.40
2022-10-06T10:22:42.460Z,11.84
2022-10-06T10:25:45.738Z,11.14
2022-10-06T10:28:51.681Z,10.31
2022-10-06T10:31:48.209Z,9.44
2022-10-06T10:34:51.430Z,12.09
2022-10-06T10:37:42.156Z,15.77
2022-10-06T10:40:31.608Z,13.03
2022-10-06T10:43:23.906Z,12.66
2022-10-06T10:46:13.014Z,12.27
2022-10-06T10:49:02.469Z,11.60
2022-10-06T10:51:53.029Z,10.51
2022-10-06T10:54:42.703Z,12.29
2022-10-06T10:57:33.879Z,11.24
2022-10-06T11:00:20.857Z,12.74
2022-10-06T11:03:03.889Z,11.87
2022-10-06T11:06:22.742Z,12.86
2022-10-06T11:09:11.824Z,12.31
2022-10-06T11:12:05.409Z,10.82
2022-10-06T11:14:59.217Z,12.86
2022-10-06T11:17:50.274Z,13.38
2022-10-06T11:20:44.476Z,13.36
2022-10-06T11:23:47.120Z,13.84
2022-10-06T11:26:55.895Z,16.65
2022-10-06T11:29:49.003Z,19.29
2022-10-06T11:32:44.383Z,19.48
2022-10-06T11:35:30.447Z,22.26
2022-10-06T11:38:20.706Z,23.45
2022-10-06T11:41:13.687Z,24.17
2022-10-06T11:44:04.430Z,25.11
2022-10-06T11:46:53.529Z,24.12
2022-10-06T11:49:52.137Z,24.48
2022-10-06T11:52:57.031Z,24.20
2022-10-06T11:55:40.127Z,25.88
2022-10-06T11:58:41.457Z,24.92
2022-10-06T12:01:52.747Z,26.51
2022-10-06T12:04:35.832Z,27.05
2022-10-06T12:07:18.833Z,26.14
2022-10-06T12:10:35.560Z,28.25
2022-10-06T12:14:15.659Z,26.07
2022-10-06T12:19:54.156Z,25.79
2022-10-06T12:22:44.655Z,25.63
2022-10-06T12:25:34.086Z,28.09
2022-10-06T12:28:29.122Z,27.84
2022-10-06T12:31:31.138Z,26.19
2022-10-06T12:34:53.100Z,27.71
2022-10-06T12:37:44.460Z,27.13
2022-10-06T12:40:55.452Z,25.79
2022-10-06T12:43:57.356Z,25.04
2022-10-06T12:46:44.198Z,23.09
2022-10-06T12:49:44.443Z,23.14
2022-10-06T12:52:45.005Z,23.73
2022-10-06T12:55:46.695Z,23.92
2022-10-06T12:58:32.500Z,25.60
2022-10-06T13:01:16.212Z,27.18
2022-10-06T13:03:59.274Z,28.27
2022-10-06T13:06:50.560Z,27.29
2022-10-06T13:09:34.999Z,27.40
2022-10-06T13:12:24.624Z,27.60
2022-10-06T13:15:14.217Z,27.14
2022-10-06T13:17:59.444Z,28.31
2022-10-06T13:20:44.672Z,27.65
2022-10-06T13:23:29.502Z,27.62
2022-10-06T13:26:22.986Z,28.66
2022-10-06T13:29:17.415Z,27.36
2022-10-06T13:32:02.110Z,27.99
2022-10-06T13:34:46.510Z,28.98
2022-10-06T13:37:29.694Z,28.37
2022-10-06T13:40:21.754Z,29.58
2022-10-06T13:43:18.399Z,28.79
2022-10-06T13:46:01.675Z,29.84
2022-10-06T13:48:48.592Z,29.48
2022-10-06T13:51:33.723Z,30.42
2022-10-06T13:54:30.883Z,28.77
2022-10-06T13:57:38.092Z,28.76
2022-10-06T14:00:24.734Z,28.88
2022-10-06T14:03:11.436Z,29.16
2022-10-06T14:06:08.043Z,29.25
2022-10-06T14:08:54.858Z,30.54
2022-10-06T14:11:37.887Z,30.70
2022-10-06T14:14:21.374Z,30.72
2022-10-06T14:17:06.210Z,30.87
2022-10-06T14:19:49.194Z,31.51
2022-10-06T14:22:34.323Z,30.97
2022-10-06T14:25:20.435Z,32.20
2022-10-06T14:28:03.514Z,32.66
2022-10-06T14:30:47.283Z,31.56
2022-10-06T14:33:31.742Z,32.47
2022-10-06T14:36:20.726Z,33.05
2022-10-06T14:39:06.128Z,33.96
2022-10-06T14:41:49.087Z,33.65
2022-10-06T14:44:32.262Z,34.42
2022-10-06T14:47:15.628Z,34.69
2022-10-06T14:50:00.097Z,34.52
2022-10-06T14:52:43.231Z,35.50
2022-10-06T14:55:28.342Z,34.75
2022-10-06T14:58:11.383Z,35.90
2022-10-06T15:00:54.401Z,35.23
2022-10-06T15:03:37.613Z,36.10
2022-10-06T15:06:39.660Z,36.34
2022-10-06T15:09:23.864Z,36.73
2022-10-06T15:12:06.932Z,37.10
2022-10-06T15:14:50.023Z,37.80
2022-10-06T15:17:33.010Z,38.45
2022-10-06T15:20:17.401Z,39.06
2022-10-06T15:23:01.768Z,40.40
2022-10-06T15:26:10.793Z,41.17
2022-10-06T15:29:03.123Z,41.51
2022-10-06T15:31:53.189Z,41.39
2022-10-06T15:34:37.880Z,40.99
2022-10-06T15:37:21.160Z,41.04
2022-10-06T15:40:06.296Z,41.19
2022-10-06T15:42:49.404Z,43.86
2022-10-06T15:45:32.476Z,44.79
2022-10-06T15:48:15.522Z,45.12
2022-10-06T15:50:58.521Z,45.73
2022-10-06T15:53:43.155Z,44.69
2022-10-06T15:56:29.732Z,44.96
2022-10-06T15:59:12.835Z,43.35
2022-10-06T16:01:57.692Z,44.42
2022-10-06T16:04:55.855Z,46.24
2022-10-06T16:07:38.856Z,47.08
2022-10-06T16:10:21.822Z,45.58
2022-10-06T16:13:06.252Z,46.39
2022-10-06T16:15:53.844Z,46.94
2022-10-06T16:18:36.895Z,48.97
2022-10-06T16:21:19.907Z,50.30
2022-10-06T16:24:03.332Z,50.53
2022-10-06T16:26:47.260Z,51.81
2022-10-06T16:29:31.723Z,51.87
2022-10-06T16:32:14.771Z,52.49
2022-10-06T16:34:57.873Z,55.13
2022-10-06T16:37:43.143Z,53.66
2022-10-06T16:40:26.181Z,54.60
2022-10-06T16:43:09.123Z,52.61
2022-10-06T16:46:02.414Z,52.65
2022-10-06T16:48:47.235Z,53.08
2022-10-06T16:51:32.101Z,52.71
2022-10-06T16:54:17.478Z,53.64
2022-10-06T16:57:13.212Z,54.16
2022-10-06T17:00:00.080Z,54.55
2022-10-06T17:02:45.890Z,55.54
2022-10-06T17:05:29.737Z,54.52
2022-10-06T17:08:12.825Z,55.51
2022-10-06T17:11:03.823Z,55.64
2022-10-06T17:13:47.931Z,55.66
2022-10-06T17:16:34.486Z,55.42
2022-10-06T17:19:20.421Z,55.88
2022-10-06T17:22:03.431Z,56.15
2022-10-06T17:24:46.632Z,55.62
2022-10-06T17:27:32.745Z,56.47
2022-10-06T17:30:16.871Z,56.76
2022-10-06T17:32:59.827Z,56.79
2022-10-06T17:35:44.207Z,56.39
2022-10-06T17:38:27.961Z,56.44
2022-10-06T17:41:13.200Z,56.30
2022-10-06T17:43:58.969Z,56.53
2022-10-06T17:46:44.079Z,56.95
2022-10-06T17:49:28.725Z,57.15
2022-10-06T17:52:13.120Z,57.12
2022-10-06T17:54:56.703Z,57.11
2022-10-06T17:57:40.092Z,57.11
2022-10-06T18:00:23.202Z,57.26
2022-10-06T18:03:07.312Z,57.31
2022-10-06T18:05:59.031Z,58.71
2022-10-06T18:08:44.243Z,58.05
2022-10-06T18:11:41.686Z,58.45
2022-10-06T18:14:26.855Z,58.14
2022-10-06T18:17:09.884Z,58.82
2022-10-06T18:19:52.965Z,59.03
2022-10-06T18:22:36.011Z,59.09
2022-10-06T18:25:26.584Z,59.41
2022-10-06T18:28:12.116Z,59.35
2022-10-06T18:30:55.224Z,59.72
2022-10-06T18:35:50.751Z,59.92
2022-10-06T18:36:42.285Z,59.54
2022-10-06T18:39:25.492Z,59.51
2022-10-06T18:42:11.442Z,60.05
2022-10-06T18:45:11.909Z,60.22
2022-10-06T18:48:12.549Z,61.19
2022-10-06T18:51:02.243Z,60.95
2022-10-06T18:53:45.285Z,60.58
2022-10-06T18:56:31.309Z,61.63
2022-10-06T18:59:16.706Z,61.68
2022-10-06T19:02:00.639Z,61.62
2022-10-06T19:04:43.793Z,61.55
2022-10-06T19:07:30.982Z,62.00
2022-10-06T19:10:14.067Z,61.86
2022-10-06T19:12:58.291Z,61.64
2022-10-06T19:15:51.380Z,61.79
2022-10-06T19:18:36.556Z,61.70
2022-10-06T19:21:19.698Z,61.86
2022-10-06T19:24:02.803Z,61.84
2022-10-06T19:26:48.187Z,61.77
2022-10-06T19:29:36.872Z,61.95
2022-10-06T19:32:23.689Z,62.31
2022-10-06T19:35:10.329Z,62.22
2022-10-06T19:37:53.901Z,62.89
2022-10-06T19:40:37.594Z,62.47
2022-10-06T19:43:20.054Z,62.78
2022-10-06T19:46:04.227Z,62.52
2022-10-06T19:48:54.993Z,62.85
2022-10-06T19:51:41.342Z,62.90
2022-10-06T19:54:27.472Z,62.68
2022-10-06T19:57:11.530Z,63.16
2022-10-06T19:59:54.576Z,63.33
2022-10-06T20:02:42.114Z,62.78
2022-10-06T20:05:27.407Z,63.28
2022-10-06T20:08:10.459Z,63.77
2022-10-06T20:11:02.767Z,63.57
2022-10-06T20:13:46.491Z,63.87
2022-10-06T20:16:30.963Z,63.65
2022-10-06T20:19:14.465Z,63.45
2022-10-06T20:21:59.047Z,63.81
2022-10-06T20:24:42.067Z,63.75
2022-10-06T20:27:25.186Z,63.45
2022-10-06T20:30:09.328Z,63.54
2022-10-06T20:32:52.595Z,63.35
2022-10-06T20:35:35.581Z,63.22
2022-10-06T20:38:39.971Z,63.96
2022-10-06T20:41:22.331Z,62.99
2022-10-06T20:44:06.289Z,63.38
2022-10-06T20:46:49.356Z,63.56
2022-10-06T20:49:32.447Z,63.12
2022-10-06T20:52:15.433Z,63.51
2022-10-06T20:54:59.861Z,63.48
2022-10-06T20:57:42.917Z,63.53
2022-10-06T21:00:25.970Z,63.91
2022-10-06T21:03:09.381Z,63.79
2022-10-06T21:05:52.630Z,64.24
2022-10-06T21:08:35.801Z,64.25
2022-10-06T21:11:22.109Z,64.38
2022-10-06T21:14:07.490Z,65.01
2022-10-06T21:16:52.565Z,64.94
2022-10-06T21:19:37.964Z,65.56
2022-10-06T21:22:21.077Z,66.65
2022-10-06T21:25:04.156Z,66.91
2022-10-06T21:27:49.029Z,67.05
2022-10-06T21:30:33.868Z,67.44
2022-10-06T21:33:16.984Z,67.80
2022-10-06T21:36:00.937Z,67.77
2022-10-06T21:38:45.554Z,68.55
2022-10-06T21:41:32.820Z,68.93
2022-10-06T21:44:18.768Z,69.05
2022-10-06T21:47:03.096Z,69.89
2022-10-06T21:49:46.142Z,69.89
2022-10-06T21:52:29.119Z,68.78
2022-10-06T21:55:12.098Z,68.54
2022-10-06T21:57:55.113Z,68.54
2022-10-06T22:00:39.880Z,68.66
2022-10-06T22:03:22.845Z,68.48
2022-10-06T22:06:07.444Z,68.40
2022-10-06T22:08:51.358Z,68.48
2022-10-06T22:11:35.899Z,68.96
2022-10-06T22:14:20.137Z,69.43
2022-10-06T22:17:05.037Z,69.09
2022-10-06T22:19:48.018Z,68.89
2022-10-06T22:22:31.007Z,69.06
2022-10-06T22:25:14.028Z,69.22
2022-10-06T22:27:57.167Z,68.62
2022-10-06T22:30:40.190Z,69.07
2022-10-06T22:33:24.691Z,68.83
2022-10-06T22:36:08.959Z,68.17
2022-10-06T22:38:52.404Z,68.47
2022-10-06T22:41:35.404Z,68.56
2022-10-06T22:44:18.408Z,68.48
2022-10-06T22:47:01.419Z,67.91
2022-10-06T22:49:45.864Z,68.20
2022-10-06T22:52:28.882Z,68.18
2022-10-06T22:55:11.896Z,67.81
2022-10-06T22:57:54.847Z,68.07
2022-10-06T23:00:38.327Z,68.22
2022-10-06T23:03:21.865Z,68.63
2022-10-06T23:06:07.407Z,68.42
2022-10-06T23:08:50.431Z,68.94
2022-10-06T23:11:33.402Z,68.54
2022-10-06T23:14:16.445Z,68.84
2022-10-06T23:16:59.482Z,68.86
2022-10-06T23:19:42.541Z,68.94
2022-10-06T23:22:26.994Z,68.93
2022-10-06T23:25:10.735Z,68.85
2022-10-06T23:27:53.848Z,69.53
2022-10-06T23:30:37.090Z,69.57
2022-10-06T23:33:20.058Z,69.54
2022-10-06T23:36:05.411Z,69.54
2022-10-06T23:38:49.867Z,70.07
2022-10-06T23:41:32.851Z,70.44
2022-10-06T23:44:15.865Z,70.55
2022-10-06T23:46:58.875Z,70.58
2022-10-06T23:49:43.643Z,71.51
2022-10-06T23:52:26.642Z,72.10
2022-10-06T23:55:11.052Z,72.27
2022-10-06T23:57:54.092Z,71.47
